Time;durP1;ratioP1;P1;durP2;ratioP2;P2;SDS_P1;SDS_P2;PMS_P1;PMS_P2;Temp;Humidity;BMP_temperature;BMP_pressure;BME280_temperature;BME280_humidity;BME280_pressure;Samples;Min_cycle;Max_cycle;Signal;HPM_P1;HPM_P2
2021/08/30 04:59:33;;;;;;;49.18;16.00;;;;;;;21.88;64.52;99306.02;1747286;76;21649;-35
2021/08/30 05:02:00;;;;;;;33.83;14.85;;;;;;;21.95;64.92;99302.02;1780029;79;21068;-33
2021/08/30 05:04:27;;;;;;;35.58;15.05;;;;;;;22.04;65.69;99300.12;1761742;79;21435;-33
2021/08/30 05:06:55;;;;;;;37.93;14.05;;;;;;;22.14;64.59;99307.55;1781149;79;21017;-36
2021/08/30 05:09:23;;;;;;;28.10;12.03;;;;;;;22.27;64.01;99305.84;1786653;80;21016;-33
2021/08/30 05:11:49;;;;;;;28.40;11.95;;;;;;;22.41;63.26;99307.61;1772374;80;21521;-39
2021/08/30 05:14:16;;;;;;;25.72;11.53;;;;;;;22.55;62.83;99310.22;1753806;79;21538;-39
2021/08/30 05:16:43;;;;;;;26.45;11.68;;;;;;;22.70;62.54;99301.23;1733677;82;21646;-34
2021/08/30 05:19:11;;;;;;;29.95;12.65;;;;;;;22.83;61.99;99303.95;1737092;79;21075;-40
2021/08/30 05:21:37;;;;;;;25.97;12.63;;;;;;;22.94;61.74;99293.94;1758992;79;21072;-39
2021/08/30 05:24:07;;;;;;;24.50;12.82;;;;;;;23.06;61.33;99295.78;1774682;80;21505;-34
2021/08/30 05:26:35;;;;;;;28.83;12.20;;;;;;;23.19;61.49;99293.98;1774954;80;21068;-33
2021/08/30 05:29:01;;;;;;;78.20;30.45;;;;;;;23.31;61.30;99298.52;1724246;82;21043;-39
2021/08/30 05:31:29;;;;;;;64.42;24.32;;;;;;;23.43;61.08;99288.82;1787434;79;21052;-39
2021/08/30 05:33:58;;;;;;;42.20;15.53;;;;;;;23.53;60.44;99291.69;1772900;79;21088;-38
2021/08/30 05:36:26;;;;;;;76.92;34.15;;;;;;;23.63;60.00;99292.80;1786559;79;20978;-34
2021/08/30 05:38:53;;;;;;;34.63;17.20;;;;;;;23.72;60.41;99293.98;1781881;78;21038;-40
2021/08/30 05:41:20;;;;;;;30.50;13.50;;;;;;;23.82;60.10;99287.87;1759794;81;21666;-40
2021/08/30 05:43:48;;;;;;;25.65;11.80;;;;;;;23.96;59.33;99289.58;1725361;83;21485;-34
2021/08/30 05:46:18;;;;;;;21.87;10.68;;;;;;;24.07;59.00;99287.00;1729262;80;21005;-39
2021/08/30 05:48:46;;;;;;;28.40;11.05;;;;;;;24.18;57.88;99286.69;1780266;80;21022;-39
2021/08/30 05:51:13;;;;;;;24.65;11.22;;;;;;;24.28;57.83;99288.59;1722069;82;21016;-33
2021/08/30 05:53:40;;;;;;;30.85;11.93;;;;;;;24.41;57.65;99285.91;1709499;82;21813;-34
2021/08/30 05:56:08;;;;;;;29.85;11.53;;;;;;;24.52;57.24;99289.99;1753895;79;20974;-39
2021/08/30 05:58:36;;;;;;;25.08;10.68;;;;;;;24.57;56.20;99286.50;1763742;79;21633;-39
2021/08/30 06:01:04;;;;;;;23.90;11.18;;;;;;;24.60;56.13;99292.98;1762250;79;20966;-40
2021/08/30 06:03:30;;;;;;;22.30;10.13;;;;;;;24.66;55.82;99291.18;1768314;79;21075;-39
2021/08/30 06:05:58;;;;;;;32.40;12.93;;;;;;;24.74;56.17;99287.93;1794227;79;20997;-39
2021/08/30 06:08:25;;;;;;;23.83;11.57;;;;;;;24.76;55.74;99285.13;1771176;80;21016;-34
2021/08/30 06:10:51;;;;;;;21.27;11.35;;;;;;;24.78;55.37;99281.88;1758887;79;21005;-35
2021/08/30 06:13:19;;;;;;;25.88;11.88;;;;;;;24.79;55.88;99280.91;1770206;79;21020;-40
2021/08/30 06:15:46;;;;;;;23.73;10.95;;;;;;;24.86;55.69;99284.34;1758957;79;21003;-39
2021/08/30 06:18:12;;;;;;;19.67;11.30;;;;;;;24.97;55.93;99280.02;1720152;81;21548;-40
2021/08/30 06:20:39;;;;;;;26.68;11.60;;;;;;;25.08;56.32;99275.59;1690400;83;21035;-35
2021/08/30 06:23:06;;;;;;;27.73;11.75;;;;;;;25.20;55.27;99267.95;1715056;82;21471;-41
2021/08/30 06:25:34;;;;;;;29.05;10.85;;;;;;;25.36;54.87;99276.16;1754308;79;21001;-35
2021/08/30 06:28:00;;;;;;;30.85;11.28;;;;;;;25.46;54.52;99278.50;1770084;80;21070;-35
2021/08/30 06:30:27;;;;;;;23.07;12.47;;;;;;;25.55;54.78;99280.45;1768152;79;21024;-40
2021/08/30 06:32:54;;;;;;;24.07;10.48;;;;;;;25.62;54.46;99283.00;1760959;80;21064;-35
2021/08/30 06:35:22;;;;;;;23.85;11.53;;;;;;;25.65;54.59;99284.12;1752721;79;21544;-36
2021/08/30 06:37:48;;;;;;;23.67;10.70;;;;;;;25.69;54.93;99284.25;1758058;79;21068;-35
2021/08/30 06:40:16;;;;;;;25.90;11.33;;;;;;;25.73;54.92;99273.67;1715592;80;21477;-41
2021/08/30 06:42:42;;;;;;;34.30;12.95;;;;;;;25.82;54.45;99280.64;1732893;81;21022;-35
2021/08/30 06:45:10;;;;;;;32.83;11.68;;;;;;;25.91;54.10;99281.23;1728484;81;21081;-35
2021/08/30 06:47:37;;;;;;;22.73;10.88;;;;;;;25.99;54.31;99278.33;1733071;82;21037;-41
2021/08/30 06:50:05;;;;;;;21.85;11.10;;;;;;;26.08;53.86;99276.72;1707037;81;20965;-36
2021/08/30 06:52:32;;;;;;;29.02;10.75;;;;;;;26.16;53.79;99276.98;1768792;80;21019;-41
2021/08/30 06:54:59;;;;;;;22.82;10.85;;;;;;;26.20;53.61;99272.20;1769058;79;21464;-35
2021/08/30 06:57:25;;;;;;;28.85;11.10;;;;;;;26.20;53.54;99277.07;1766541;79;21025;-35
2021/08/30 06:59:52;;;;;;;20.35;10.80;;;;;;;26.24;53.87;99268.31;1773308;79;21039;-41
2021/08/30 07:02:19;;;;;;;18.42;9.93;;;;;;;26.31;54.07;99262.81;1738430;81;21749;-34
2021/08/30 07:04:46;;;;;;;36.23;11.43;;;;;;;26.38;53.35;99264.03;1718776;80;20980;-35
2021/08/30 07:07:13;;;;;;;40.67;11.53;;;;;;;26.48;53.53;99263.66;1757574;80;21023;-35
2021/08/30 07:09:40;;;;;;;21.93;13.53;;;;;;;26.62;53.92;99268.39;1761038;79;21478;-41
2021/08/30 07:12:08;;;;;;;38.00;26.02;;;;;;;26.71;52.43;99267.13;1767046;79;21077;-35
2021/08/30 07:14:35;;;;;;;26.60;14.38;;;;;;;26.82;52.50;99266.73;1765114;79;21057;-41
2021/08/30 07:17:02;;;;;;;25.72;12.18;;;;;;;26.93;53.00;99264.84;1758624;80;21049;-41
2021/08/30 07:19:29;;;;;;;31.93;10.53;;;;;;;27.09;52.89;99268.97;1764128;79;21020;-35
2021/08/30 07:21:56;;;;;;;24.12;11.78;;;;;;;27.19;53.00;99269.37;1759119;79;21077;-35
2021/08/30 07:24:23;;;;;;;27.10;11.68;;;;;;;27.29;52.83;99272.14;1768679;79;21465;-35
2021/08/30 07:26:50;;;;;;;20.32;10.43;;;;;;;27.40;51.99;99272.56;1780221;79;21020;-35
2021/08/30 07:29:17;;;;;;;46.42;13.10;;;;;;;27.46;52.04;99270.20;1769198;79;21549;-41
2021/08/30 07:31:43;;;;;;;27.85;10.58;;;;;;;27.53;52.25;99280.77;1760393;79;21019;-41
2021/08/30 07:34:10;;;;;;;24.55;9.58;;;;;;;27.58;51.40;99271.83;1722889;81;21039;-34
2021/08/30 07:36:38;;;;;;;20.10;10.43;;;;;;;27.65;51.46;99272.14;1757900;79;21088;-35
2021/08/30 07:39:05;;;;;;;20.88;10.60;;;;;;;27.74;51.68;99267.85;1756150;79;21032;-35
2021/08/30 07:41:33;;;;;;;29.95;10.90;;;;;;;27.78;51.45;99271.48;1759303;79;20989;-40
2021/08/30 07:43:59;;;;;;;19.82;9.78;;;;;;;27.77;50.94;99271.13;1763062;80;21115;-35
2021/08/30 07:46:26;;;;;;;25.30;9.60;;;;;;;27.70;50.96;99272.62;1733064;80;20979;-35
2021/08/30 07:48:53;;;;;;;44.42;11.78;;;;;;;27.65;50.83;99276.66;1734254;80;21013;-40
2021/08/30 07:51:20;;;;;;;39.05;11.48;;;;;;;27.57;51.46;99280.88;1771939;79;21040;-41
2021/08/30 07:53:48;;;;;;;24.70;10.58;;;;;;;27.56;51.31;99274.30;1722567;82;21032;-35
2021/08/30 07:56:14;;;;;;;32.73;10.72;;;;;;;27.55;51.56;99274.80;1752468;79;21591;-36
2021/08/30 07:58:41;;;;;;;33.65;11.45;;;;;;;27.62;52.33;99270.23;1762860;79;21063;-41
2021/08/30 08:01:08;;;;;;;28.57;11.75;;;;;;;27.68;51.42;99263.83;1772331;79;21519;-42
2021/08/30 08:03:35;;;;;;;24.37;10.70;;;;;;;27.76;51.72;99267.22;1753412;79;21063;-35
2021/08/30 08:06:02;;;;;;;32.42;10.85;;;;;;;27.90;51.94;99274.09;1728448;81;21024;-41
2021/08/30 08:08:29;;;;;;;30.60;11.08;;;;;;;27.99;50.78;99274.11;1729766;80;21063;-41
2021/08/30 08:10:56;;;;;;;24.43;10.23;;;;;;;28.00;50.57;99277.64;1697748;81;20985;-35
2021/08/30 08:13:23;;;;;;;25.00;10.78;;;;;;;27.95;51.07;99279.88;1765253;79;21020;-37
2021/08/30 08:15:50;;;;;;;24.70;10.63;;;;;;;27.91;51.96;99277.97;1760550;79;21156;-41
2021/08/30 08:18:16;;;;;;;23.90;9.28;;;;;;;27.90;52.10;99278.97;1735134;80;21063;-40
2021/08/30 08:20:43;;;;;;;20.23;10.15;;;;;;;27.97;51.18;99284.16;1770332;79;21889;-33
2021/08/30 08:23:10;;;;;;;25.48;10.55;;;;;;;28.12;50.95;99285.96;1770963;79;21046;-33
2021/08/30 08:25:40;;;;;;;26.77;11.00;;;;;;;28.26;50.82;99279.38;1715443;81;21498;-34
2021/08/30 08:28:08;;;;;;;29.42;11.12;;;;;;;28.41;51.04;99278.02;1695283;82;21050;-34
2021/08/30 08:30:35;;;;;;;23.65;10.25;;;;;;;28.53;50.76;99267.52;1712536;83;21018;-35
2021/08/30 08:33:02;;;;;;;18.60;9.38;;;;;;;28.68;49.22;99263.06;1762757;79;21017;-40
2021/08/30 08:35:29;;;;;;;23.12;10.40;;;;;;;28.81;49.00;99258.25;1782534;79;21449;-41
2021/08/30 08:37:56;;;;;;;16.20;9.28;;;;;;;28.90;48.23;99256.92;1715521;80;21609;-41
2021/08/30 08:40:23;;;;;;;21.45;9.55;;;;;;;28.94;48.41;99253.99;1725709;81;21039;-34
2021/08/30 08:42:58;;;;;;;21.27;9.70;;;;;;;29.03;48.29;99254.46;1730282;81;21564;-33
2021/08/30 08:45:30;;;;;;;22.52;11.10;;;;;;;29.07;48.17;99250.50;1781078;78;21583;-38
2021/08/30 08:47:56;;;;;;;24.52;11.20;;;;;;;29.14;48.15;99255.66;1755526;80;21025;-33
2021/08/30 08:50:26;;;;;;;20.50;10.03;;;;;;;29.23;48.02;99256.66;1760521;79;21005;-33
2021/08/30 08:52:54;;;;;;;31.68;11.50;;;;;;;29.33;48.55;99257.47;1753666;79;21562;-34
2021/08/30 08:55:21;;;;;;;24.90;10.03;;;;;;;29.42;47.47;99251.23;1768131;79;21032;-34
2021/08/30 08:57:48;;;;;;;25.23;9.95;;;;;;;29.42;46.87;99251.23;1758239;80;21037;-34
2021/08/30 09:00:15;;;;;;;28.67;10.40;;;;;;;29.39;47.26;99251.50;1736819;81;21090;-40
2021/08/30 09:02:41;;;;;;;24.00;10.28;;;;;;;29.46;47.72;99251.80;1709256;83;21130;-39
2021/08/30 09:05:14;;;;;;;20.52;9.78;;;;;;;29.62;47.76;99256.93;1731888;82;21509;-34
2021/08/30 09:07:42;;;;;;;23.05;9.20;;;;;;;29.78;46.94;99256.82;1733265;81;21577;-36
2021/08/30 09:10:13;;;;;;;20.35;9.25;;;;;;;29.93;46.38;99254.85;1729048;82;21630;-40
2021/08/30 09:12:41;;;;;;;23.02;9.93;;;;;;;30.04;46.24;99251.63;1776776;80;21088;-39
2021/08/30 09:15:25;;;;;;;25.02;9.70;;;;;;;30.15;47.14;99252.30;1741811;80;21020;-40
2021/08/30 09:17:53;;;;;;;32.10;9.35;;;;;;;30.25;44.60;99250.03;1751339;79;20999;-34
2021/08/30 09:20:24;;;;;;;27.67;8.68;;;;;;;30.27;44.21;99248.02;1759235;81;20981;-34
2021/08/30 09:22:51;;;;;;;22.45;8.58;;;;;;;30.22;43.70;99255.24;1775296;81;21451;-34
2021/08/30 09:25:17;;;;;;;24.60;9.18;;;;;;;30.23;43.75;99251.55;1783237;79;21603;-34
2021/08/30 09:27:48;;;;;;;30.20;10.15;;;;;;;30.33;43.66;99252.84;1771774;79;21060;-33
2021/08/30 09:30:15;;;;;;;26.17;9.78;;;;;;;30.51;44.63;99252.38;1769045;80;21472;-34
2021/08/30 09:32:49;;;;;;;23.02;8.95;;;;;;;30.70;44.44;99251.41;1777360;80;21049;-39
2021/08/30 09:35:16;;;;;;;25.37;8.75;;;;;;;30.85;43.67;99261.18;1773686;80;21088;-39
2021/08/30 09:37:45;;;;;;;20.23;8.40;;;;;;;30.93;42.29;99253.98;1728340;81;21062;-34
2021/08/30 09:40:15;;;;;;;40.85;10.13;;;;;;;30.94;42.84;99254.33;1775589;80;21079;-34
2021/08/30 09:42:51;;;;;;;19.82;8.00;;;;;;;30.90;42.27;99248.88;1710581;82;21063;-40
2021/08/30 09:45:21;;;;;;;17.80;8.25;;;;;;;30.87;42.72;99242.46;1726815;83;21042;-40
2021/08/30 09:47:56;;;;;;;18.62;8.60;;;;;;;30.85;42.14;99236.88;1722228;82;21065;-40
2021/08/30 09:50:42;;;;;;;24.77;8.63;;;;;;;30.88;42.93;99237.40;1749516;81;21028;-40
2021/08/30 09:53:09;;;;;;;19.57;7.92;;;;;;;30.99;42.56;99233.11;1755060;80;21004;-34
2021/08/30 09:55:36;;;;;;;19.77;8.93;;;;;;;31.07;41.95;99229.63;1756196;81;21058;-34
2021/08/30 09:58:03;;;;;;;21.45;8.60;;;;;;;31.11;41.89;99228.31;1759282;79;21008;-40
2021/08/30 10:00:31;;;;;;;21.80;8.70;;;;;;;31.17;42.12;99233.08;1747713;79;21524;-40
2021/08/30 10:02:59;;;;;;;17.07;7.92;;;;;;;31.27;41.93;99232.19;1765521;79;21091;-40
2021/08/30 10:05:28;;;;;;;25.52;9.08;;;;;;;31.36;42.08;99227.16;1766312;79;21098;-40
2021/08/30 10:07:55;;;;;;;24.82;8.83;;;;;;;31.48;41.28;99235.34;1718887;82;21067;-34
2021/08/30 10:10:23;;;;;;;19.45;8.23;;;;;;;31.56;41.88;99231.36;1727340;82;21013;-34
2021/08/30 10:12:52;;;;;;;18.52;8.23;;;;;;;31.65;41.95;99232.24;1692736;83;21040;-40
2021/08/30 10:15:21;;;;;;;25.90;9.73;;;;;;;31.76;42.76;99225.20;1760911;80;21015;-34
2021/08/30 10:17:48;;;;;;;24.25;9.08;;;;;;;31.91;42.54;99229.05;1789581;79;21009;-34
2021/08/30 10:20:21;;;;;;;28.65;9.40;;;;;;;32.08;40.28;99221.00;1779563;79;21052;-39
2021/08/30 10:23:03;;;;;;;33.60;8.58;;;;;;;32.02;40.31;99217.94;1748360;80;21107;-34
2021/08/30 10:25:31;;;;;;;;;;;;;;;32.04;40.55;99225.88;1761830;80;21024;-34
2021/08/30 10:28:01;;;;;;;24.82;8.93;;;;;;;32.06;40.64;99217.09;1776688;80;20443;-34
2021/08/30 10:30:28;;;;;;;19.40;8.80;;;;;;;31.89;41.72;99217.55;1766515;79;21028;-40
2021/08/30 10:33:00;;;;;;;26.35;9.20;;;;;;;31.77;41.60;99217.44;1770152;80;21028;-34
2021/08/30 10:35:30;;;;;;;;;;;;;;;31.67;42.81;99220.78;1756482;79;22296;-34
2021/08/30 10:38:02;;;;;;;30.10;9.05;;;;;;;31.59;42.79;99212.61;1760349;79;20112;-39
2021/08/30 10:40:32;;;;;;;21.82;8.35;;;;;;;31.63;42.91;99211.30;1770917;79;21019;-35
2021/08/30 10:43:06;;;;;;;24.60;8.58;;;;;;;31.70;43.00;99213.19;1754127;79;21057;-34
2021/08/30 10:45:43;;;;;;;21.05;8.60;;;;;;;31.90;42.99;99212.98;1757348;79;21024;-34
2021/08/30 10:48:13;;;;;;;29.50;8.75;;;;;;;32.08;42.65;99212.38;1769135;79;21051;-33
2021/08/30 10:50:45;;;;;;;22.82;8.90;;;;;;;32.15;42.05;99211.22;1725923;81;21036;-38
2021/08/30 10:53:21;;;;;;;17.67;9.43;;;;;;;32.07;41.97;99205.28;1716706;82;21586;-40
2021/08/30 10:55:50;;;;;;;21.33;8.78;;;;;;;31.98;42.04;99203.55;1690914;81;21080;-40
2021/08/30 10:58:20;;;;;;;19.65;8.75;;;;;;;31.95;41.70;99206.09;1716098;82;21091;-40
2021/08/30 11:00:49;;;;;;;20.57;9.33;;;;;;;31.91;42.17;99201.16;1721517;81;21040;-40
2021/08/30 11:03:32;;;;;;;17.75;9.13;;;;;;;31.93;42.40;99204.03;1721896;82;21107;-40
2021/08/30 11:06:10;;;;;;;28.20;9.65;;;;;;;31.92;41.80;99195.58;1762598;79;21024;-40
2021/08/30 11:08:40;;;;;;;21.70;9.98;;;;;;;31.99;42.20;99199.83;1771573;79;21103;-40
2021/08/30 11:11:17;;;;;;;23.92;9.70;;;;;;;32.29;42.04;99196.53;1752615;80;21037;-41
2021/08/30 11:14:07;;;;;;;21.33;9.25;;;;;;;32.62;40.67;99193.92;1756710;79;20993;-39
2021/08/30 11:16:34;;;;;;;22.17;9.85;;;;;;;32.87;39.54;99187.16;1761579;79;21537;-34
2021/08/30 11:19:08;;;;;;;33.02;11.60;;;;;;;33.03;39.17;99185.33;1766746;79;21020;-33
2021/08/30 11:21:47;;;;;;;22.65;10.68;;;;;;;33.08;38.79;99182.11;1760246;80;21103;-34
2021/08/30 11:24:39;;;;;;;20.75;9.65;;;;;;;33.01;39.33;99183.82;1769477;79;20985;-40
2021/08/30 11:27:29;;;;;;;27.50;10.25;;;;;;;32.86;38.74;99190.38;1772322;80;21060;-40
2021/08/30 11:30:00;;;;;;;34.30;10.82;;;;;;;32.71;39.65;99182.10;1758125;80;21069;-33
2021/08/30 11:32:30;;;;;;;16.48;9.53;;;;;;;32.74;40.79;99185.81;1777053;79;21143;-39
2021/08/30 11:34:57;;;;;;;31.25;11.05;;;;;;;32.92;40.27;99183.47;1752625;80;21044;-33
2021/08/30 11:37:28;;;;;;;16.15;8.83;;;;;;;33.12;38.91;99177.20;1768532;79;21093;-40
2021/08/30 11:39:58;;;;;;;23.87;10.48;;;;;;;33.25;39.01;99170.75;1748301;79;21032;-34
2021/08/30 11:42:29;;;;;;;26.10;8.73;;;;;;;33.22;38.71;99171.08;1762547;79;21074;-34
2021/08/30 11:44:57;;;;;;;21.68;9.03;;;;;;;33.09;39.24;99170.25;1759271;79;21584;-40
2021/08/30 11:47:24;;;;;;;20.95;9.43;;;;;;;32.87;39.79;99166.34;1759868;79;21082;-41
2021/08/30 11:49:59;;;;;;;20.75;8.23;;;;;;;32.68;40.36;99169.39;1774941;79;21013;-41
2021/08/30 11:52:28;;;;;;;18.90;8.95;;;;;;;32.53;41.39;99167.88;1751062;80;21069;-34
2021/08/30 11:55:11;;;;;;;20.08;8.93;;;;;;;32.38;42.61;99166.84;1752002;80;21057;-39
2021/08/30 11:57:45;;;;;;;27.50;9.13;;;;;;;32.32;43.23;99165.61;1752454;80;21816;-40
2021/08/30 12:00:15;;;;;;;24.67;8.25;;;;;;;32.33;42.69;99163.74;1774190;79;21068;-40
2021/08/30 12:02:42;;;;;;;30.30;9.43;;;;;;;32.29;42.52;99163.22;1761156;80;21056;-41
2021/08/30 12:05:09;;;;;;;25.50;8.95;;;;;;;32.21;41.74;99159.16;1766509;79;21064;-34
2021/08/30 12:07:36;;;;;;;22.80;8.88;;;;;;;32.12;42.37;99160.14;1764294;80;21602;-33
2021/08/30 12:10:09;;;;;;;26.35;8.75;;;;;;;32.07;41.40;99160.66;1768413;78;20956;-34
2021/08/30 12:12:50;;;;;;;21.07;8.95;;;;;;;32.05;39.84;99154.55;1759024;78;21041;-41
2021/08/30 12:15:16;;;;;;;16.40;8.23;;;;;;;32.07;39.27;99157.95;1746285;79;21024;-41
2021/08/30 12:17:55;;;;;;;15.63;8.93;;;;;;;32.06;38.79;99148.12;1754499;80;21024;-34
2021/08/30 12:20:26;;;;;;;25.50;8.40;;;;;;;31.99;38.25;99153.85;1755600;80;21043;-41
2021/08/30 12:22:57;;;;;;;29.23;8.33;;;;;;;31.95;38.02;99148.42;1768142;80;21052;-41
2021/08/30 12:25:26;;;;;;;18.80;7.90;;;;;;;31.98;38.63;99150.81;1781341;80;21020;-34
2021/08/30 12:27:52;;;;;;;22.95;7.92;;;;;;;31.99;37.58;99142.52;1769212;79;21050;-33
2021/08/30 12:30:25;;;;;;;24.43;8.03;;;;;;;32.05;35.65;99146.43;1778832;78;21520;-40
2021/08/30 12:33:06;;;;;;;23.32;7.45;;;;;;;32.19;35.05;99143.61;1769566;80;21052;-39
2021/08/30 12:35:42;;;;;;;17.80;7.12;;;;;;;32.32;35.74;99138.55;1755130;80;21632;-34
2021/08/30 12:38:18;;;;;;;15.53;7.92;;;;;;;32.40;35.75;99139.09;1764395;79;21088;-33
2021/08/30 12:40:48;;;;;;;23.18;7.85;;;;;;;32.42;35.87;99135.22;1729878;80;21051;-41
2021/08/30 12:43:16;;;;;;;22.20;6.70;;;;;;;32.44;36.53;99139.10;1752756;78;21129;-35
2021/08/30 12:45:44;;;;;;;29.80;8.30;;;;;;;32.41;36.52;99132.66;1754209;79;21495;-33
2021/08/30 12:48:11;;;;;;;24.55;7.60;;;;;;;32.40;36.79;99132.32;1768225;79;21103;-34
2021/08/30 12:50:39;;;;;;;23.85;7.92;;;;;;;32.43;37.00;99127.44;1779901;79;21039;-36
2021/08/30 12:53:06;;;;;;;20.60;8.38;;;;;;;32.45;36.12;99134.02;1759522;79;21064;-39
2021/08/30 12:55:34;;;;;;;20.25;7.25;;;;;;;32.48;36.17;99131.00;1752694;80;21524;-33
2021/08/30 12:58:02;;;;;;;27.60;7.85;;;;;;;32.47;36.31;99132.86;1767964;78;21473;-39
2021/08/30 13:00:29;;;;;;;22.73;7.60;;;;;;;32.45;36.89;99124.55;1757805;79;21068;-40
2021/08/30 13:02:55;;;;;;;13.40;6.72;;;;;;;32.34;37.27;99127.55;1771602;79;21025;-34
2021/08/30 13:05:25;;;;;;;18.37;7.60;;;;;;;32.18;36.92;99119.77;1758211;79;21566;-34
2021/08/30 13:07:53;;;;;;;22.70;7.80;;;;;;;31.99;37.45;99119.54;1759638;80;21688;-39
2021/08/30 13:10:22;;;;;;;22.22;7.78;;;;;;;31.80;37.98;99112.23;1772355;79;21152;-35
2021/08/30 13:12:49;;;;;;;12.55;6.80;;;;;;;31.54;38.02;99125.25;1773213;79;21005;-35
2021/08/30 13:15:18;;;;;;;15.23;7.25;;;;;;;31.34;38.61;99122.47;1758218;79;21516;-34
2021/08/30 13:17:46;;;;;;;17.45;7.37;;;;;;;31.09;39.02;99122.81;1763779;80;21540;-38
2021/08/30 13:20:13;;;;;;;25.35;8.85;;;;;;;30.85;39.70;99120.80;1755494;79;21024;-40
2021/08/30 13:22:40;;;;;;;19.00;8.53;;;;;;;30.67;40.15;99113.55;1722815;81;21111;-34
2021/08/30 13:25:13;;;;;;;24.47;8.35;;;;;;;30.56;39.76;99112.91;1730418;81;21093;-35
2021/08/30 13:27:44;;;;;;;;;;;;;;;30.43;40.32;99118.21;1763254;80;21674;-39
2021/08/30 13:30:11;;;;;;;31.62;7.37;;;;;;;30.28;40.49;99115.73;1772552;79;20102;-33
2021/08/30 13:32:38;;;;;;;22.30;8.05;;;;;;;30.19;40.67;99115.29;1761935;79;21044;-40
2021/08/30 13:35:06;;;;;;;21.85;8.30;;;;;;;30.15;40.61;99117.47;1762255;79;21021;-39
2021/08/30 13:37:32;;;;;;;27.30;8.43;;;;;;;30.16;40.43;99113.77;1766209;79;21125;-40
2021/08/30 13:39:59;;;;;;;26.77;7.92;;;;;;;30.13;40.02;99110.52;1770037;79;21025;-35
2021/08/30 13:42:26;;;;;;;27.65;8.35;;;;;;;30.08;39.60;99113.62;1737404;80;21064;-39
2021/08/30 13:44:53;;;;;;;22.95;8.30;;;;;;;30.04;39.64;99104.17;1776436;80;21056;-39
2021/08/30 13:47:20;;;;;;;23.32;8.30;;;;;;;30.04;39.51;99101.98;1785838;79;21024;-39
2021/08/30 13:49:47;;;;;;;22.17;8.23;;;;;;;30.05;39.79;99085.64;1771193;79;21031;-40
2021/08/30 13:52:13;;;;;;;21.70;8.78;;;;;;;30.06;39.73;99069.80;1772470;79;21125;-39
2021/08/30 13:54:40;;;;;;;25.30;8.55;;;;;;;30.05;39.75;99067.27;1759924;79;21006;-40
2021/08/30 13:57:07;;;;;;;27.98;8.73;;;;;;;30.05;40.22;99071.31;1764678;80;21087;-34
2021/08/30 13:59:34;;;;;;;28.83;8.38;;;;;;;30.01;39.87;99083.39;1720344;83;20961;-34
2021/08/30 14:02:01;;;;;;;31.27;9.33;;;;;;;29.97;39.89;99089.58;1778432;77;21033;-40
2021/08/30 14:04:28;;;;;;;25.88;9.00;;;;;;;29.95;40.15;99086.20;1723202;81;21053;-39
2021/08/30 14:06:56;;;;;;;39.70;14.00;;;;;;;29.91;40.04;99075.36;1710896;82;21536;-39
2021/08/30 14:09:23;;;;;;;58.15;21.17;;;;;;;29.87;40.10;99074.84;1730142;81;21061;-40
2021/08/30 14:11:50;;;;;;;42.93;20.02;;;;;;;29.81;40.19;99071.91;1761605;80;21067;-34
2021/08/30 14:14:17;;;;;;;29.02;14.43;;;;;;;29.76;40.25;99076.91;1769908;79;21054;-34
2021/08/30 14:16:44;;;;;;;30.57;11.08;;;;;;;29.71;40.31;99078.70;1763356;80;21083;-39
2021/08/30 14:19:11;;;;;;;25.35;10.40;;;;;;;29.65;40.15;99084.70;1778837;80;21052;-39
2021/08/30 14:21:48;;;;;;;24.75;9.45;;;;;;;29.59;39.58;99093.38;1770829;80;21099;-34
2021/08/30 14:24:15;;;;;;;33.65;11.55;;;;;;;29.56;39.45;99097.20;1750328;79;21496;-34
2021/08/30 14:26:42;;;;;;;30.55;10.23;;;;;;;29.56;39.92;99105.79;1726589;82;21607;-34
2021/08/30 14:29:09;;;;;;;28.30;10.85;;;;;;;29.56;39.72;99112.53;1745087;82;21575;-38
2021/08/30 14:31:36;;;;;;;28.02;9.98;;;;;;;29.55;39.96;99120.27;1733324;81;21602;-39
2021/08/30 14:34:03;;;;;;;27.05;9.93;;;;;;;29.53;39.96;99122.27;1737239;81;21091;-34
2021/08/30 14:36:30;;;;;;;28.73;8.55;;;;;;;29.48;40.02;99124.02;1761776;80;22353;-34
2021/08/30 14:38:57;;;;;;;34.35;10.28;;;;;;;29.44;40.39;99122.62;1769110;80;21501;-34
2021/08/30 14:41:24;;;;;;;24.50;10.05;;;;;;;29.41;40.53;99129.16;1761652;80;21540;-34
2021/08/30 14:43:52;;;;;;;28.62;9.70;;;;;;;29.38;41.32;99125.41;1758836;81;21004;-33
2021/08/30 14:46:19;;;;;;;30.25;8.88;;;;;;;29.36;41.07;99123.87;1766706;80;21066;-35
2021/08/30 14:48:46;;;;;;;22.02;8.50;;;;;;;29.31;40.36;99122.95;1749802;81;21038;-34
2021/08/30 14:51:12;;;;;;;22.98;9.03;;;;;;;29.31;40.38;99116.73;1734290;82;21025;-33
2021/08/30 14:53:44;;;;;;;29.02;9.68;;;;;;;29.28;40.55;99113.84;1738265;81;21604;-37
2021/08/30 14:56:12;;;;;;;31.25;10.63;;;;;;;29.24;40.69;99113.78;1738369;80;21131;-39
2021/08/30 14:58:40;;;;;;;36.00;11.35;;;;;;;29.22;40.67;99112.21;1764300;80;21099;-40
2021/08/30 15:01:07;;;;;;;45.63;12.28;;;;;;;29.18;42.25;99114.37;1735808;82;21104;-40
2021/08/30 15:03:34;;;;;;;41.42;12.07;;;;;;;29.11;42.78;99119.50;1745834;80;21087;-40
2021/08/30 15:06:01;;;;;;;42.80;13.78;;;;;;;29.03;42.94;99108.59;1770616;80;21009;-39
2021/08/30 15:08:29;;;;;;;34.00;12.07;;;;;;;28.96;43.34;99104.79;1753467;79;21508;-39
2021/08/30 15:10:57;;;;;;;28.95;13.00;;;;;;;28.89;43.01;99096.42;1790055;79;21036;-39
2021/08/30 15:13:24;;;;;;;32.73;11.88;;;;;;;28.85;43.33;99102.23;1729563;80;21048;-40
2021/08/30 15:15:51;;;;;;;34.15;12.78;;;;;;;28.77;43.08;99101.63;1725260;81;21105;-40
2021/08/30 15:18:18;;;;;;;28.52;13.32;;;;;;;28.73;43.04;99106.08;1732516;79;21024;-40
2021/08/30 15:20:44;;;;;;;37.58;11.35;;;;;;;28.69;44.39;99100.63;1754762;81;21044;-39
2021/08/30 15:23:12;;;;;;;27.40;11.48;;;;;;;28.63;44.02;99093.98;1762275;80;21560;-39
2021/08/30 15:25:40;;;;;;;27.73;11.97;;;;;;;28.58;44.78;99084.99;1745677;82;21097;-38
2021/08/30 15:28:07;;;;;;;27.02;12.50;;;;;;;28.50;44.57;99082.68;1733143;81;21126;-37
2021/08/30 15:30:33;;;;;;;35.63;14.38;;;;;;;28.42;46.23;99087.94;1772064;80;20995;-34
2021/08/30 15:33:00;;;;;;;37.03;13.95;;;;;;;28.30;46.44;99096.11;1754416;80;21068;-39
2021/08/30 15:35:27;;;;;;;37.03;14.73;;;;;;;28.20;48.58;99103.82;1765325;80;21043;-39
2021/08/30 15:37:54;;;;;;;45.90;24.43;;;;;;;28.00;48.79;99106.47;1768441;80;21566;-40
2021/08/30 15:40:21;;;;;;;352.20;225.15;;;;;;;27.77;49.87;99107.23;1780354;80;21005;-34
2021/08/30 15:42:49;;;;;;;461.73;310.88;;;;;;;27.53;51.13;99093.25;1779661;79;21080;-40
2021/08/30 15:45:16;;;;;;;431.63;270.52;;;;;;;27.35;51.71;99095.73;1777408;80;21008;-40
2021/08/30 15:47:43;;;;;;;111.88;64.27;;;;;;;27.20;52.82;99101.98;1768627;80;21495;-40
2021/08/30 15:50:11;;;;;;;79.53;42.13;;;;;;;27.01;54.63;99102.68;1779064;80;21033;-40
2021/08/30 15:52:40;;;;;;;44.75;27.80;;;;;;;26.81;56.31;99097.35;1769969;80;21590;-35
2021/08/30 15:55:09;;;;;;;25.57;12.85;;;;;;;26.60;57.59;99097.34;1752135;79;21032;-34
2021/08/30 15:57:36;;;;;;;27.22;13.68;;;;;;;26.42;58.52;99101.94;1732024;82;21111;-35
2021/08/30 16:00:06;;;;;;;22.45;12.40;;;;;;;26.29;58.90;99101.25;1729168;81;21044;-40
2021/08/30 16:02:33;;;;;;;19.15;11.03;;;;;;;26.21;59.35;99108.59;1737326;80;21509;-40
2021/08/30 16:05:00;;;;;;;20.48;11.35;;;;;;;26.17;59.60;99114.34;1746176;80;21037;-41
2021/08/30 16:07:27;;;;;;;20.05;10.98;;;;;;;26.11;60.18;99097.43;1769195;80;21706;-34
